createdAt,value
2018-09-04T00:01:19.652Z,92.00
2018-09-04T00:03:48.349Z,92.10
2018-09-04T00:06:17.033Z,92.20
2018-09-04T00:08:45.771Z,92.00
2018-09-04T00:11:14.507Z,92.00
2018-09-04T00:13:43.704Z,92.00
2018-09-04T00:16:12.409Z,92.20
2018-09-04T00:18:41.554Z,92.20
2018-09-04T00:21:10.396Z,92.20
2018-09-04T00:23:39.121Z,92.40
2018-09-04T00:26:07.928Z,92.50
2018-09-04T00:28:36.659Z,92.40
2018-09-04T00:31:05.385Z,92.40
2018-09-04T00:33:34.116Z,92.40
2018-09-04T00:36:02.993Z,92.50
2018-09-04T00:38:31.767Z,92.70
2018-09-04T00:41:01.420Z,92.70
2018-09-04T00:43:30.154Z,93.10
2018-09-04T00:45:58.996Z,93.20
2018-09-04T00:48:27.801Z,93.40
2018-09-04T00:50:56.654Z,93.50
2018-09-04T00:53:25.631Z,93.80
2018-09-04T00:55:54.386Z,93.90
2018-09-04T00:58:23.140Z,94.10
2018-09-04T01:00:52.085Z,94.30
2018-09-04T01:03:20.807Z,94.50
2018-09-04T01:05:49.510Z,94.70
2018-09-04T01:08:18.217Z,94.80
2018-09-04T01:10:46.975Z,95.00
2018-09-04T01:13:15.750Z,94.80
2018-09-04T01:15:44.705Z,95.00
2018-09-04T01:18:13.453Z,94.80
2018-09-04T01:20:42.212Z,95.00
2018-09-04T01:23:11.026Z,95.10
2018-09-04T01:25:39.937Z,95.40
2018-09-04T01:28:09.679Z,95.30
2018-09-04T01:30:38.425Z,95.30
2018-09-04T01:33:07.164Z,95.50
2018-09-04T01:35:36.233Z,95.70
2018-09-04T01:38:05.017Z,95.60
2018-09-04T01:40:33.714Z,95.60
2018-09-04T01:43:02.465Z,95.80
2018-09-04T01:45:31.086Z,95.80
2018-09-04T01:47:59.860Z,96.10
2018-09-04T01:50:29.538Z,96.10
2018-09-04T01:52:58.224Z,96.20
2018-09-04T01:55:26.910Z,96.30
2018-09-04T01:57:55.916Z,96.60
2018-09-04T02:00:24.691Z,96.70
2018-09-04T02:02:54.390Z,96.40
2018-09-04T02:05:23.100Z,97.00
2018-09-04T02:07:51.794Z,96.90
2018-09-04T02:10:20.560Z,97.10
2018-09-04T02:12:49.358Z,97.30
2018-09-04T02:15:18.076Z,97.50
2018-09-04T02:17:46.868Z,97.30
2018-09-04T02:20:15.708Z,97.20
2018-09-04T02:22:45.304Z,97.40
2018-09-04T02:25:14.001Z,97.50
2018-09-04T02:27:42.628Z,97.50
2018-09-04T02:30:11.381Z,97.20
2018-09-04T02:32:40.077Z,97.30
2018-09-04T02:35:08.822Z,97.20
2018-09-04T02:37:37.537Z,97.20
2018-09-04T02:40:06.388Z,97.40
2018-09-04T02:42:35.120Z,97.60
2018-09-04T02:45:03.892Z,97.70
2018-09-04T02:47:32.862Z,97.70
2018-09-04T02:50:01.604Z,97.60
2018-09-04T02:52:30.385Z,97.70
2018-09-04T02:54:59.338Z,97.50
2018-09-04T02:57:28.062Z,97.40
2018-09-04T02:59:56.777Z,97.60
2018-09-04T03:02:25.568Z,97.70
2018-09-04T03:04:54.353Z,97.80
2018-09-04T03:07:23.160Z,97.90
2018-09-04T03:09:51.971Z,97.60
2018-09-04T03:12:20.726Z,97.50
2018-09-04T03:14:49.546Z,97.50
2018-09-04T03:17:18.544Z,97.90
2018-09-04T03:19:47.224Z,97.70
2018-09-04T03:22:15.994Z,97.80
2018-09-04T03:24:44.721Z,97.80
2018-09-04T03:27:13.397Z,97.90
2018-09-04T03:29:42.281Z,97.80
2018-09-04T03:32:10.980Z,97.70
2018-09-04T03:34:39.646Z,97.60
2018-09-04T03:37:08.446Z,97.90
2018-09-04T03:39:37.172Z,97.80
2018-09-04T03:42:05.868Z,97.70
2018-09-04T03:44:34.656Z,97.80
2018-09-04T03:47:03.460Z,98.10
2018-09-04T03:49:32.169Z,98.00
2018-09-04T03:52:01.199Z,97.70
2018-09-04T03:54:30.106Z,97.70
2018-09-04T03:56:58.828Z,97.60
2018-09-04T03:59:27.611Z,97.80
2018-09-04T04:01:56.380Z,97.70
2018-09-04T04:04:25.230Z,97.80
2018-09-04T04:06:53.948Z,97.90
2018-09-04T04:09:22.795Z,98.00
2018-09-04T04:11:51.526Z,98.10
2018-09-04T04:14:20.266Z,98.10
2018-09-04T04:16:48.996Z,97.80
2018-09-04T04:19:17.831Z,97.80
2018-09-04T04:21:46.884Z,97.90
2018-09-04T04:24:15.643Z,98.10
2018-09-04T04:26:44.309Z,98.10
2018-09-04T04:29:13.063Z,97.90
2018-09-04T04:31:42.105Z,98.00
2018-09-04T04:34:10.840Z,98.00
2018-09-04T04:36:39.568Z,98.10
2018-09-04T04:39:09.185Z,98.00
2018-09-04T04:41:37.861Z,98.10
2018-09-04T04:44:06.647Z,97.90
2018-09-04T04:46:36.230Z,98.10
2018-09-04T04:49:05.364Z,97.90
2018-09-04T04:51:34.091Z,97.80
2018-09-04T04:54:02.880Z,97.70
2018-09-04T04:56:31.667Z,97.90
2018-09-04T04:59:00.461Z,98.00
2018-09-04T05:01:29.217Z,98.00
2018-09-04T05:03:58.309Z,98.00
2018-09-04T05:06:27.204Z,97.70
2018-09-04T05:08:55.879Z,97.80
2018-09-04T05:11:24.721Z,98.00
2018-09-04T05:13:53.560Z,98.10
2018-09-04T05:16:22.384Z,98.00
2018-09-04T05:18:51.284Z,98.10
2018-09-04T05:21:20.136Z,98.10
2018-09-04T05:23:48.794Z,98.10
2018-09-04T05:26:17.488Z,98.10
2018-09-04T05:28:46.208Z,97.90
2018-09-04T05:31:15.012Z,97.90
2018-09-04T05:33:45.031Z,98.10
2018-09-04T05:36:14.151Z,98.00
2018-09-04T05:38:42.867Z,98.00
2018-09-04T05:41:11.536Z,98.10
2018-09-04T05:43:56.432Z,98.20
2018-09-04T05:46:29.002Z,98.30
2018-09-04T05:48:58.274Z,98.10
2018-09-04T05:51:27.032Z,98.10
2018-09-04T05:53:55.996Z,98.40
2018-09-04T05:56:24.966Z,98.40
2018-09-04T05:58:53.763Z,98.40
2018-09-04T06:01:22.800Z,98.00
2018-09-04T06:03:51.569Z,98.30
2018-09-04T06:06:20.453Z,98.40
2018-09-04T06:08:49.611Z,98.30
2018-09-04T06:11:18.479Z,98.30
2018-09-04T06:13:47.332Z,98.40
2018-09-04T06:16:16.806Z,98.40
2018-09-04T06:18:45.492Z,98.40
2018-09-04T06:21:14.278Z,98.50
2018-09-04T06:23:42.955Z,98.40
2018-09-04T06:26:11.810Z,98.70
2018-09-04T06:28:40.680Z,98.50
2018-09-04T06:31:09.556Z,98.40
2018-09-04T06:33:38.282Z,98.50
2018-09-04T06:36:07.367Z,98.50
2018-09-04T06:38:36.158Z,98.20
2018-09-04T06:41:05.116Z,98.20
2018-09-04T06:43:33.944Z,98.30
2018-09-04T06:46:03.246Z,98.20
2018-09-04T06:48:32.016Z,98.00
2018-09-04T06:51:00.805Z,98.40
2018-09-04T06:53:30.421Z,98.40
2018-09-04T06:55:59.167Z,98.10
2018-09-04T06:58:28.006Z,98.30
2018-09-04T07:00:56.854Z,98.20
2018-09-04T07:03:25.577Z,98.50
2018-09-04T07:05:54.387Z,98.50
2018-09-04T07:08:23.120Z,98.60
2018-09-04T07:10:51.896Z,98.50
2018-09-04T07:13:20.563Z,98.40
2018-09-04T07:15:49.508Z,98.30
2018-09-04T07:18:18.304Z,98.30
2018-09-04T07:20:47.288Z,98.20
2018-09-04T07:23:16.139Z,98.10
2018-09-04T07:25:44.928Z,98.30
2018-09-04T07:28:13.625Z,98.30
2018-09-04T07:30:42.431Z,98.00
2018-09-04T07:33:11.363Z,98.30
2018-09-04T07:35:40.200Z,98.00
2018-09-04T07:38:08.933Z,98.20
2018-09-04T07:40:37.656Z,98.00
2018-09-04T07:43:06.572Z,97.90
2018-09-04T07:45:35.212Z,97.90
2018-09-04T07:48:03.986Z,98.00
2018-09-04T07:50:33.136Z,97.90
2018-09-04T07:53:01.815Z,98.10
2018-09-04T07:55:30.529Z,98.10
2018-09-04T07:57:59.416Z,98.20
2018-09-04T08:00:28.295Z,97.90
2018-09-04T08:02:57.117Z,98.20
2018-09-04T08:05:25.897Z,98.20
2018-09-04T08:07:54.848Z,98.40
2018-09-04T08:10:23.576Z,98.60
2018-09-04T08:12:52.584Z,98.60
2018-09-04T08:15:21.612Z,98.40
2018-09-04T08:17:50.673Z,98.40
2018-09-04T08:20:19.478Z,98.40
2018-09-04T08:22:48.135Z,98.50
2018-09-04T08:25:16.992Z,98.70
2018-09-04T08:27:45.793Z,98.70
2018-09-04T08:30:14.643Z,98.80
2018-09-04T08:32:43.509Z,99.00
2018-09-04T08:35:12.470Z,98.90
2018-09-04T08:37:41.224Z,98.90
2018-09-04T08:40:10.142Z,98.50
2018-09-04T08:42:38.816Z,98.60
2018-09-04T08:45:07.657Z,98.80
2018-09-04T08:47:37.509Z,98.70
2018-09-04T08:50:06.982Z,98.80
2018-09-04T08:52:35.743Z,98.70
2018-09-04T08:55:04.646Z,98.80
2018-09-04T08:57:33.433Z,98.70
2018-09-04T09:00:02.926Z,98.50
2018-09-04T09:02:31.791Z,98.50
2018-09-04T09:05:00.676Z,99.00
2018-09-04T09:07:29.513Z,98.90
2018-09-04T09:09:58.253Z,98.70
2018-09-04T09:12:27.125Z,98.90
2018-09-04T09:14:56.113Z,98.80
2018-09-04T09:17:24.828Z,99.00
2018-09-04T09:19:53.501Z,99.00
2018-09-04T09:22:22.238Z,99.20
2018-09-04T09:24:50.986Z,98.90
2018-09-04T09:27:19.990Z,99.20
2018-09-04T09:29:48.793Z,99.20
2018-09-04T09:32:17.644Z,99.10
2018-09-04T09:34:46.397Z,99.40
2018-09-04T09:37:15.240Z,99.30
2018-09-04T09:39:44.031Z,98.90
2018-09-04T09:42:13.801Z,98.70
2018-09-04T09:44:44.256Z,98.90
2018-09-04T09:47:13.084Z,98.90
2018-09-04T09:49:42.233Z,98.90
2018-09-04T09:52:11.334Z,98.90
2018-09-04T09:54:40.517Z,98.70
2018-09-04T09:57:09.346Z,98.80
2018-09-04T09:59:38.381Z,98.70
2018-09-04T10:02:13.248Z,98.80
2018-09-04T10:04:42.659Z,98.50
2018-09-04T10:07:11.428Z,98.50
2018-09-04T10:09:40.416Z,98.70
2018-09-04T10:12:09.228Z,98.50
2018-09-04T10:14:37.953Z,98.50
2018-09-04T10:17:07.656Z,98.40
2018-09-04T10:19:36.484Z,98.40
2018-09-04T10:22:05.723Z,98.50
2018-09-04T10:24:35.317Z,98.30
2018-09-04T10:27:04.100Z,98.10
2018-09-04T10:29:32.833Z,98.40
2018-09-04T10:32:01.824Z,98.40
2018-09-04T10:34:30.968Z,98.10
2018-09-04T10:37:00.467Z,98.50
2018-09-04T10:39:34.723Z,98.30
2018-09-04T10:42:03.892Z,98.20
2018-09-04T10:44:33.089Z,98.10
2018-09-04T10:47:02.843Z,97.90
2018-09-04T10:49:31.578Z,98.10
2018-09-04T10:52:00.384Z,98.00
2018-09-04T10:54:29.265Z,98.10
2018-09-04T10:56:58.685Z,98.20
2018-09-04T10:59:27.496Z,98.20
2018-09-04T11:01:56.718Z,98.20
2018-09-04T11:04:25.489Z,98.20
2018-09-04T11:06:54.352Z,98.10
2018-09-04T11:09:23.405Z,98.20
2018-09-04T11:11:52.128Z,98.20
2018-09-04T11:14:20.929Z,98.10
2018-09-04T11:16:50.066Z,98.20
2018-09-04T11:19:18.873Z,98.00
2018-09-04T11:21:47.571Z,97.60
2018-09-04T11:24:16.688Z,97.60
2018-09-04T11:26:45.350Z,97.70
2018-09-04T11:29:14.301Z,97.80
2018-09-04T11:31:43.127Z,97.70
2018-09-04T11:34:11.869Z,97.60
2018-09-04T11:36:40.857Z,97.30
2018-09-04T11:39:10.724Z,97.30
2018-09-04T11:41:39.670Z,97.30
2018-09-04T11:44:08.505Z,97.40
2018-09-04T11:46:37.248Z,97.40
2018-09-04T11:49:06.146Z,97.20
2018-09-04T11:51:34.865Z,97.30
2018-09-04T11:54:03.794Z,97.30
2018-09-04T11:56:36.757Z,97.30
2018-09-04T11:59:06.041Z,97.20
2018-09-04T12:01:36.692Z,97.10
2018-09-04T12:04:05.670Z,97.10
2018-09-04T12:06:34.822Z,97.30
2018-09-04T12:09:05.133Z,97.20
2018-09-04T12:11:33.993Z,97.20
2018-09-04T12:14:03.111Z,97.20
2018-09-04T12:16:32.020Z,97.10
2018-09-04T12:19:00.858Z,96.80
2018-09-04T12:21:29.676Z,97.00
2018-09-04T12:23:58.443Z,96.90
2018-09-04T12:26:27.184Z,96.80
2018-09-04T12:28:56.032Z,96.60
2018-09-04T12:31:24.944Z,96.60
2018-09-04T12:33:53.838Z,96.70
2018-09-04T12:36:22.717Z,96.60
2018-09-04T12:39:19.219Z,96.60
2018-09-04T12:41:50.160Z,96.90
2018-09-04T12:44:19.166Z,96.90
2018-09-04T12:46:47.886Z,96.90
2018-09-04T12:49:16.739Z,97.40
2018-09-04T12:51:46.582Z,97.40
2018-09-04T12:54:17.483Z,97.20
2018-09-04T12:56:46.567Z,97.00
2018-09-04T12:59:15.418Z,96.90
2018-09-04T13:01:44.976Z,96.90
2018-09-04T13:04:18.955Z,96.80
2018-09-04T13:06:50.131Z,96.90
2018-09-04T13:09:18.971Z,96.90
2018-09-04T13:11:47.711Z,97.00
2018-09-04T13:14:16.491Z,96.50
2018-09-04T13:16:45.184Z,96.50
2018-09-04T13:19:14.171Z,96.30
2018-09-04T13:21:44.124Z,96.30
2018-09-04T13:24:13.404Z,96.10
2018-09-04T13:26:42.180Z,95.90
2018-09-04T13:29:11.035Z,95.90
2018-09-04T13:31:39.865Z,95.60
2018-09-04T13:34:09.658Z,95.50
2018-09-04T13:36:40.463Z,95.60
2018-09-04T13:39:09.309Z,95.50
2018-09-04T13:41:38.244Z,95.30
2018-09-04T13:44:09.572Z,95.40
2018-09-04T13:46:38.548Z,95.20
2018-09-04T13:49:07.783Z,95.40
2018-09-04T13:51:36.994Z,95.30
2018-09-04T13:54:07.532Z,95.10
2018-09-04T13:56:37.100Z,94.70
2018-09-04T13:59:06.004Z,94.30
2018-09-04T14:01:34.923Z,94.40
2018-09-04T14:04:03.719Z,94.30
2018-09-04T14:06:33.135Z,94.20
2018-09-04T14:09:01.790Z,94.30
2018-09-04T14:11:30.389Z,94.10
2018-09-04T14:13:59.141Z,94.20
2018-09-04T14:16:27.988Z,94.00
2018-09-04T14:18:57.730Z,93.90
2018-09-04T14:21:27.701Z,94.00
2018-09-04T14:23:56.333Z,94.00
2018-09-04T14:26:24.957Z,93.60
2018-09-04T14:29:07.051Z,93.60
2018-09-04T14:31:24.337Z,93.60
2018-09-04T14:33:53.048Z,93.60
2018-09-04T14:36:21.734Z,93.80
2018-09-04T14:38:50.587Z,93.40
2018-09-04T14:41:19.486Z,93.20
2018-09-04T14:43:52.242Z,92.60
2018-09-04T14:46:21.482Z,92.70
2018-09-04T14:48:51.267Z,92.70
2018-09-04T14:51:20.081Z,92.80
2018-09-04T14:53:48.983Z,92.80
2018-09-04T14:56:17.656Z,92.60
2018-09-04T14:58:46.450Z,92.10
2018-09-04T15:01:15.208Z,92.00
2018-09-04T15:03:43.947Z,91.90
2018-09-04T15:06:13.217Z,91.80
2018-09-04T15:08:41.992Z,92.00
2018-09-04T15:11:11.080Z,91.60
2018-09-04T15:13:40.007Z,91.80
2018-09-04T15:16:08.896Z,91.70
2018-09-04T15:18:37.804Z,91.70
2018-09-04T15:21:06.671Z,91.60
2018-09-04T15:23:36.381Z,91.50
2018-09-04T15:26:05.160Z,91.20
2018-09-04T15:28:34.155Z,91.10
2018-09-04T15:31:03.010Z,91.30
2018-09-04T15:33:32.059Z,91.20
2018-09-04T15:36:00.816Z,91.20
2018-09-04T15:38:30.697Z,91.20
2018-09-04T15:40:59.452Z,91.00
2018-09-04T15:43:29.344Z,91.20
2018-09-04T15:45:58.171Z,91.10
2018-09-04T15:48:26.922Z,90.80
2018-09-04T15:50:57.793Z,90.50
2018-09-04T15:53:26.934Z,90.30
2018-09-04T15:55:55.651Z,90.30
2018-09-04T15:58:24.421Z,90.50
2018-09-04T16:00:53.155Z,90.30
2018-09-04T16:03:24.208Z,90.00
2018-09-04T16:05:53.024Z,89.60
2018-09-04T16:08:21.764Z,89.70
2018-09-04T16:10:50.610Z,89.60
2018-09-04T16:13:19.371Z,89.10
2018-09-04T16:15:48.140Z,89.30
2018-09-04T16:18:17.172Z,89.20
2018-09-04T16:20:46.369Z,89.10
2018-09-04T16:23:15.250Z,89.00
2018-09-04T16:25:44.451Z,89.20
2018-09-04T16:28:17.718Z,89.40
2018-09-04T16:30:46.503Z,89.90
2018-09-04T16:33:20.802Z,89.70
2018-09-04T16:35:50.661Z,89.20
2018-09-04T16:38:19.380Z,89.80
2018-09-04T16:40:48.271Z,90.00
2018-09-04T16:43:17.118Z,90.10
2018-09-04T16:45:45.931Z,90.00
2018-09-04T16:48:14.638Z,90.10
2018-09-04T16:50:43.785Z,90.10
2018-09-04T16:53:12.629Z,90.20
2018-09-04T16:55:41.446Z,90.00
2018-09-04T16:58:10.234Z,90.00
2018-09-04T17:00:38.984Z,89.80
2018-09-04T17:03:07.750Z,89.60
2018-09-04T17:05:36.876Z,89.80
2018-09-04T17:08:05.854Z,90.00
2018-09-04T17:10:34.801Z,90.00
2018-09-04T17:13:03.903Z,90.10
2018-09-04T17:15:32.626Z,90.30
2018-09-04T17:18:01.698Z,90.50
2018-09-04T17:20:30.540Z,90.50
2018-09-04T17:22:59.251Z,90.30
2018-09-04T17:25:28.332Z,90.50
2018-09-04T17:27:57.135Z,90.60
2018-09-04T17:30:25.781Z,90.80
2018-09-04T17:32:54.921Z,91.10
2018-09-04T17:35:24.188Z,91.20
2018-09-04T17:37:53.114Z,91.20
2018-09-04T17:40:22.057Z,91.40
2018-09-04T17:42:51.156Z,91.20
2018-09-04T17:45:19.980Z,91.30
2018-09-04T17:47:48.822Z,91.30
2018-09-04T17:50:17.532Z,91.30
2018-09-04T17:52:49.608Z,91.40
2018-09-04T17:55:18.653Z,91.50
2018-09-04T17:57:47.565Z,91.70
2018-09-04T18:00:16.403Z,91.80
2018-09-04T18:02:45.142Z,91.80
2018-09-04T18:05:13.952Z,91.90
2018-09-04T18:07:42.789Z,91.90
2018-09-04T18:10:11.488Z,92.00
2018-09-04T18:12:40.262Z,92.30
2018-09-04T18:15:09.150Z,92.40
2018-09-04T18:17:38.008Z,92.50
2018-09-04T18:20:07.232Z,92.30
2018-09-04T18:22:40.135Z,92.40
2018-09-04T18:25:09.093Z,92.70
2018-09-04T18:27:37.940Z,92.90
2018-09-04T18:30:11.289Z,92.90
2018-09-04T18:32:40.066Z,92.90
2018-09-04T18:35:08.831Z,93.00
2018-09-04T18:37:37.771Z,93.00
2018-09-04T18:40:06.661Z,93.00
2018-09-04T18:42:35.407Z,92.90
2018-09-04T18:45:04.266Z,92.90
2018-09-04T18:47:33.101Z,92.90
2018-09-04T18:50:02.014Z,92.80
2018-09-04T18:52:30.999Z,92.90
2018-09-04T18:55:00.066Z,93.00
2018-09-04T18:57:28.865Z,93.00
2018-09-04T18:59:57.726Z,92.90
2018-09-04T19:02:26.621Z,93.00
2018-09-04T19:04:55.388Z,93.10
2018-09-04T19:07:24.278Z,93.20
2018-09-04T19:09:53.182Z,93.20
2018-09-04T19:12:22.058Z,93.10
2018-09-04T19:14:52.100Z,93.00
2018-09-04T19:17:21.057Z,93.10
2018-09-04T19:19:49.997Z,93.20
2018-09-04T19:22:19.137Z,93.40
2018-09-04T19:24:48.001Z,93.50
2018-09-04T19:27:17.004Z,93.50
2018-09-04T19:29:46.106Z,93.60
2018-09-04T19:32:15.019Z,93.60
2018-09-04T19:34:43.862Z,93.80
2018-09-04T19:37:13.044Z,93.90
2018-09-04T19:39:41.820Z,94.30
2018-09-04T19:42:10.557Z,94.00
2018-09-04T19:44:39.616Z,94.10
2018-09-04T19:47:08.807Z,94.20
2018-09-04T19:49:37.585Z,94.20
2018-09-04T19:52:06.583Z,94.20
2018-09-04T19:54:35.327Z,94.30
2018-09-04T19:57:04.517Z,94.40
2018-09-04T19:59:33.417Z,94.20
2018-09-04T20:02:02.165Z,94.30
2018-09-04T20:04:30.954Z,94.30
2018-09-04T20:07:00.050Z,94.40
2018-09-04T20:09:28.984Z,94.70
2018-09-04T20:11:57.830Z,94.70
2018-09-04T20:14:26.779Z,94.80
2018-09-04T20:16:55.541Z,94.80
2018-09-04T20:19:24.372Z,94.80
2018-09-04T20:21:53.222Z,95.00
2018-09-04T20:24:22.035Z,95.00
2018-09-04T20:26:51.893Z,95.00
2018-09-04T20:29:20.618Z,95.00
2018-09-04T20:31:49.312Z,95.00
2018-09-04T20:34:18.118Z,95.00
2018-09-04T20:36:46.835Z,95.20
2018-09-04T20:39:15.600Z,95.10
2018-09-04T20:41:44.749Z,95.10
2018-09-04T20:44:13.677Z,95.20
2018-09-04T20:46:42.767Z,95.30
2018-09-04T20:49:11.442Z,95.20
2018-09-04T20:51:40.393Z,95.10
2018-09-04T20:54:09.231Z,95.00
2018-09-04T20:56:38.417Z,95.10
2018-09-04T20:59:18.304Z,95.20
2018-09-04T21:01:58.073Z,95.20
2018-09-04T21:04:38.214Z,95.30
2018-09-04T21:07:05.727Z,95.30
2018-09-04T21:09:42.555Z,95.20
2018-09-04T21:12:12.668Z,95.00
2018-09-04T21:14:41.381Z,95.00
2018-09-04T21:17:10.691Z,95.00
2018-09-04T21:19:39.304Z,94.90
2018-09-04T21:22:08.210Z,94.70
2018-09-04T21:24:36.968Z,94.80
2018-09-04T21:27:05.793Z,94.80
2018-09-04T21:29:34.647Z,94.80
2018-09-04T21:32:03.765Z,94.80
2018-09-04T21:34:32.552Z,94.80
2018-09-04T21:37:01.379Z,94.80
2018-09-04T21:39:30.107Z,94.80
2018-09-04T21:41:58.916Z,94.80
2018-09-04T21:44:27.876Z,94.90
2018-09-04T21:46:56.604Z,94.90
2018-09-04T21:49:25.372Z,94.80
2018-09-04T21:51:54.155Z,94.70
2018-09-04T21:54:22.883Z,94.70
2018-09-04T21:56:52.684Z,94.70
2018-09-04T21:59:21.542Z,94.80
2018-09-04T22:01:50.351Z,94.70
2018-09-04T22:04:19.450Z,94.50
2018-09-04T22:06:48.219Z,94.60
2018-09-04T22:09:16.966Z,94.70
2018-09-04T22:11:46.211Z,94.60
2018-09-04T22:14:14.958Z,94.60
2018-09-04T22:16:43.709Z,94.50
2018-09-04T22:19:12.529Z,94.50
2018-09-04T22:21:41.439Z,94.70
2018-09-04T22:24:10.181Z,94.40
2018-09-04T22:26:40.065Z,94.40
2018-09-04T22:29:10.817Z,94.40
2018-09-04T22:31:39.644Z,94.30
2018-09-04T22:34:08.326Z,94.40
2018-09-04T22:36:38.132Z,94.40
2018-09-04T22:39:07.730Z,94.30
2018-09-04T22:41:36.551Z,94.20
2018-09-04T22:44:05.392Z,94.00
2018-09-04T22:46:34.389Z,94.00
2018-09-04T22:49:03.554Z,94.00
2018-09-04T22:51:36.419Z,94.20
2018-09-04T22:54:06.382Z,94.20
2018-09-04T22:56:38.443Z,94.30
2018-09-04T22:59:07.532Z,94.30
2018-09-04T23:01:39.077Z,94.20
2018-09-04T23:04:07.908Z,94.40
2018-09-04T23:06:37.902Z,94.40
2018-09-04T23:09:08.589Z,94.30
2018-09-04T23:11:37.509Z,94.40
2018-09-04T23:14:06.477Z,94.40
2018-09-04T23:16:35.369Z,94.40
2018-09-04T23:19:04.215Z,94.40
2018-09-04T23:21:33.038Z,94.30
2018-09-04T23:24:01.887Z,94.20
2018-09-04T23:26:31.546Z,94.40
2018-09-04T23:29:00.520Z,94.40
2018-09-04T23:31:29.248Z,94.50
2018-09-04T23:33:57.954Z,94.50
2018-09-04T23:36:26.773Z,94.50
2018-09-04T23:38:55.670Z,94.30
2018-09-04T23:41:24.697Z,94.30
2018-09-04T23:43:53.368Z,94.30
2018-09-04T23:46:22.203Z,94.30
2018-09-04T23:48:50.968Z,94.20
2018-09-04T23:51:24.626Z,94.00
2018-09-04T23:53:53.391Z,94.00
2018-09-04T23:56:24.747Z,94.10
2018-09-04T23:58:53.613Z,94.00
